createdAt,value
2023-04-24T00:03:36.380Z,5.65
2023-04-24T00:08:40.374Z,7.65
2023-04-24T00:13:44.378Z,8.93
2023-04-24T00:18:49.729Z,8.20
2023-04-24T00:23:54.553Z,8.27
2023-04-24T00:28:58.550Z,9.65
2023-04-24T00:34:05.084Z,8.07
2023-04-24T00:39:12.189Z,6.40
2023-04-24T00:44:17.050Z,5.45
2023-04-24T00:49:21.146Z,4.88
2023-04-24T00:54:25.333Z,5.90
2023-04-24T00:59:29.300Z,8.35
2023-04-24T01:04:33.436Z,8.43
2023-04-24T01:09:40.049Z,9.43
2023-04-24T01:14:44.610Z,7.10
2023-04-24T01:19:48.784Z,6.05
2023-04-24T01:24:55.260Z,6.85
2023-04-24T01:29:59.585Z,6.18
2023-04-24T01:35:04.423Z,5.50
2023-04-24T01:40:09.309Z,7.18
2023-04-24T01:45:14.840Z,9.18
2023-04-24T01:50:20.285Z,10.10
2023-04-24T01:55:24.266Z,7.10
2023-04-24T02:00:28.481Z,6.38
2023-04-24T02:05:32.344Z,5.60
2023-04-24T02:10:36.445Z,5.53
2023-04-24T02:15:42.488Z,5.93
2023-04-24T02:20:47.054Z,5.57
2023-04-24T02:25:51.800Z,6.18
2023-04-24T02:30:56.136Z,5.90
2023-04-24T02:36:00.289Z,4.78
2023-04-24T02:41:07.804Z,6.68
2023-04-24T02:46:11.852Z,5.28
2023-04-24T02:51:15.923Z,6.13
2023-04-24T02:56:20.095Z,7.20
2023-04-24T03:01:24.036Z,5.85
2023-04-24T03:06:28.933Z,5.05
2023-04-24T03:11:32.808Z,5.43
2023-04-24T03:16:38.137Z,5.90
2023-04-24T03:21:43.546Z,8.13
2023-04-24T03:26:48.144Z,6.20
2023-04-24T03:32:04.164Z,4.60
2023-04-24T03:37:08.731Z,4.63
2023-04-24T03:42:17.677Z,5.45
2023-04-24T03:47:32.819Z,5.85
2023-04-24T03:52:39.111Z,4.50
2023-04-24T03:57:43.521Z,5.53
2023-04-24T04:02:56.927Z,7.43
2023-04-24T04:08:01.792Z,9.10
2023-04-24T04:13:06.131Z,12.23
2023-04-24T04:18:10.828Z,3.95
2023-04-24T04:23:14.918Z,5.82
2023-04-24T04:28:41.073Z,5.20
2023-04-24T04:33:45.176Z,4.82
2023-04-24T04:38:50.209Z,5.68
2023-04-24T04:44:19.121Z,4.47
2023-04-24T04:49:25.442Z,3.92
2023-04-24T04:54:29.685Z,3.13
2023-04-24T04:59:34.558Z,4.63
2023-04-24T05:04:43.975Z,3.00
2023-04-24T05:09:49.230Z,5.15
2023-04-24T05:14:53.362Z,10.52
2023-04-24T05:19:57.623Z,8.25
2023-04-24T05:25:02.182Z,8.15
2023-04-24T05:30:29.488Z,8.95
2023-04-24T05:35:33.561Z,7.38
2023-04-24T05:40:38.576Z,7.20
2023-04-24T05:45:42.554Z,8.00
2023-04-24T05:50:46.695Z,4.72
2023-04-24T05:55:51.280Z,7.15
2023-04-24T06:00:56.919Z,6.63
2023-04-24T06:06:01.560Z,11.07
2023-04-24T06:11:05.864Z,10.80
2023-04-24T06:16:11.289Z,8.13
2023-04-24T06:21:18.977Z,11.02
2023-04-24T06:26:23.826Z,10.00
2023-04-24T06:31:28.099Z,8.45
2023-04-24T06:36:32.789Z,10.50
2023-04-24T06:41:37.532Z,10.00
2023-04-24T06:46:42.043Z,8.95
2023-04-24T06:51:47.120Z,10.57
2023-04-24T06:56:53.373Z,11.98
2023-04-24T07:01:58.773Z,11.13
2023-04-24T07:07:02.752Z,10.20
2023-04-24T07:12:07.616Z,8.15
2023-04-24T07:17:11.539Z,7.07
2023-04-24T07:22:18.469Z,8.88
2023-04-24T07:27:22.354Z,10.18
2023-04-24T07:32:27.116Z,8.52
2023-04-24T07:37:31.401Z,10.75
2023-04-24T07:42:36.410Z,12.38
2023-04-24T07:47:41.647Z,11.57
2023-04-24T07:52:45.677Z,6.85
2023-04-24T07:57:49.748Z,7.50
2023-04-24T08:02:53.798Z,4.85
2023-04-24T08:07:58.424Z,9.35
2023-04-24T08:13:02.285Z,7.90
2023-04-24T08:18:06.680Z,6.57
2023-04-24T08:23:11.105Z,6.38
2023-04-24T08:28:21.847Z,9.68
2023-04-24T08:33:26.441Z,5.75
2023-04-24T08:38:30.929Z,8.07
2023-04-24T08:43:38.311Z,6.97
2023-04-24T08:48:42.189Z,7.68
2023-04-24T08:53:48.434Z,7.93
2023-04-24T08:58:56.440Z,6.88
2023-04-24T09:04:04.585Z,8.05
2023-04-24T09:09:10.363Z,4.80
2023-04-24T09:14:48.573Z,5.90
2023-04-24T09:19:58.581Z,3.75
2023-04-24T09:25:08.625Z,6.47
2023-04-24T09:30:13.291Z,2.95
2023-04-24T09:35:17.989Z,7.25
2023-04-24T09:40:24.043Z,3.08
2023-04-24T09:45:38.781Z,8.40
2023-04-24T09:50:49.300Z,6.03
2023-04-24T09:55:54.855Z,7.07
2023-04-24T10:00:59.247Z,5.13
2023-04-24T10:06:12.042Z,5.15
2023-04-24T10:11:16.746Z,6.30
2023-04-24T10:16:24.697Z,3.45
2023-04-24T10:21:29.338Z,6.80
2023-04-24T10:26:33.589Z,4.20
2023-04-24T10:31:40.204Z,8.07
2023-04-24T10:36:54.336Z,5.47
2023-04-24T10:42:00.135Z,4.72
2023-04-24T10:47:04.398Z,3.25
2023-04-24T10:52:11.125Z,4.28
2023-04-24T10:57:23.992Z,4.22
2023-04-24T11:02:40.088Z,4.30
2023-04-24T11:08:16.375Z,5.25
2023-04-24T11:13:24.413Z,3.50
2023-04-24T11:18:28.600Z,7.00
2023-04-24T11:23:39.123Z,3.22
2023-04-24T11:28:52.867Z,2.88
2023-04-24T11:33:57.135Z,5.03
2023-04-24T11:39:01.242Z,3.63
2023-04-24T11:44:08.573Z,3.67
2023-04-24T11:49:14.488Z,5.07
2023-04-24T11:54:18.481Z,6.20
2023-04-24T11:59:22.503Z,4.32
2023-04-24T12:04:27.065Z,4.75
2023-04-24T12:09:42.830Z,3.90
2023-04-24T12:14:52.478Z,5.55
2023-04-24T12:20:05.065Z,6.35
2023-04-24T12:25:13.468Z,5.40
2023-04-24T12:30:18.554Z,3.97
2023-04-24T12:35:24.950Z,5.15
2023-04-24T12:40:30.914Z,5.78
2023-04-24T12:45:34.750Z,4.68
2023-04-24T12:50:40.261Z,3.58
2023-04-24T12:55:44.443Z,5.10
2023-04-24T13:00:49.468Z,4.10
2023-04-24T13:05:53.385Z,4.05
2023-04-24T13:10:57.570Z,4.90
2023-04-24T13:16:01.567Z,3.83
2023-04-24T13:21:05.733Z,4.40
2023-04-24T13:26:10.267Z,4.35
2023-04-24T13:31:15.576Z,6.55
2023-04-24T13:36:19.957Z,6.45
2023-04-24T13:41:23.862Z,4.45
2023-04-24T13:46:27.975Z,6.47
2023-04-24T13:51:32.352Z,4.22
2023-04-24T13:56:36.764Z,5.60
2023-04-24T14:01:41.019Z,4.05
2023-04-24T14:06:45.972Z,3.95
2023-04-24T14:11:50.223Z,5.07
2023-04-24T14:16:54.132Z,7.05
2023-04-24T14:22:00.237Z,7.63
2023-04-24T14:27:04.651Z,5.10
2023-04-24T14:32:10.670Z,6.18
2023-04-24T14:37:17.928Z,3.55
2023-04-24T14:42:21.875Z,5.75
2023-04-24T14:47:26.220Z,4.43
2023-04-24T14:52:30.227Z,6.28
2023-04-24T14:57:34.508Z,4.93
2023-04-24T15:02:42.031Z,6.18
2023-04-24T15:07:47.035Z,6.65
2023-04-24T15:12:51.423Z,7.07
2023-04-24T15:17:55.429Z,5.75
2023-04-24T15:23:01.675Z,6.28
2023-04-24T15:28:06.920Z,7.57
2023-04-24T15:33:11.350Z,8.48
2023-04-24T15:38:15.543Z,8.98
2023-04-24T15:43:19.648Z,8.73
2023-04-24T15:48:23.605Z,8.63
2023-04-24T15:53:29.199Z,9.07
2023-04-24T15:58:33.171Z,9.57
2023-04-24T16:03:37.615Z,11.82
2023-04-24T16:08:42.394Z,11.05
2023-04-24T16:13:46.351Z,10.05
2023-04-24T16:18:50.916Z,11.85
2023-04-24T16:23:55.362Z,8.80
2023-04-24T16:28:59.469Z,11.38
2023-04-24T16:34:03.444Z,9.85
2023-04-24T16:39:07.860Z,9.93
2023-04-24T16:44:12.154Z,11.40
2023-04-24T16:49:16.094Z,11.85
2023-04-24T16:54:20.130Z,13.40
2023-04-24T16:59:25.251Z,12.55
2023-04-24T17:04:29.871Z,11.98
2023-04-24T17:09:34.095Z,10.57
2023-04-24T17:14:38.385Z,6.93
2023-04-24T17:19:42.428Z,3.42
2023-04-24T17:24:46.494Z,1.40
2023-04-24T17:29:50.915Z,1.50
2023-04-24T17:34:55.062Z,0.57
2023-04-24T17:39:59.436Z,0.90
2023-04-24T17:45:03.447Z,0.30
2023-04-24T17:50:08.087Z,1.00
2023-04-24T17:55:12.247Z,0.20
2023-04-24T18:00:16.610Z,0.08
2023-04-24T18:05:21.698Z,0.32
2023-04-24T18:10:30.354Z,0.52
2023-04-24T18:15:36.091Z,0.30
2023-04-24T18:21:20.321Z,0.20
2023-04-24T18:26:24.055Z,0.40
2023-04-24T18:31:28.881Z,0.45
2023-04-24T18:36:33.778Z,0.20
2023-04-24T18:41:38.350Z,0.40
2023-04-24T18:46:42.372Z,0.20
2023-04-24T18:51:53.938Z,0.47
2023-04-24T18:56:58.773Z,0.82
2023-04-24T19:02:02.849Z,0.80
2023-04-24T19:07:06.980Z,0.82
2023-04-24T19:12:11.092Z,0.95
2023-04-24T19:17:15.094Z,0.60
2023-04-24T19:22:21.000Z,0.77
2023-04-24T19:27:25.407Z,0.40
2023-04-24T19:32:29.457Z,1.13
2023-04-24T19:37:35.208Z,0.52
2023-04-24T19:42:43.778Z,0.73
2023-04-24T19:47:48.694Z,2.33
2023-04-24T19:52:52.669Z,1.40
2023-04-24T19:57:57.113Z,1.40
2023-04-24T20:03:01.413Z,0.82
2023-04-24T20:08:05.639Z,1.50
2023-04-24T20:13:09.723Z,1.45
2023-04-24T20:18:14.072Z,2.50
2023-04-24T20:23:18.478Z,4.63
2023-04-24T20:28:22.418Z,2.40
2023-04-24T20:33:26.797Z,2.40
2023-04-24T20:38:31.765Z,2.65
2023-04-24T20:43:36.184Z,3.15
2023-04-24T20:48:40.172Z,1.83
2023-04-24T20:53:44.027Z,2.20
2023-04-24T20:58:49.730Z,2.55
2023-04-24T21:03:54.220Z,1.70
2023-04-24T21:08:58.654Z,1.85
2023-04-24T21:14:02.572Z,1.88
2023-04-24T21:19:06.603Z,2.50
2023-04-24T21:24:10.592Z,2.80
2023-04-24T21:29:14.556Z,2.55
2023-04-24T21:34:18.742Z,2.00
2023-04-24T21:39:22.704Z,4.22
2023-04-24T21:44:27.082Z,1.75
2023-04-24T21:49:31.139Z,2.45
2023-04-24T21:54:35.110Z,3.00
2023-04-24T21:59:39.466Z,1.15
2023-04-24T22:04:43.796Z,1.58
2023-04-24T22:09:48.553Z,2.30
2023-04-24T22:14:52.650Z,1.33
2023-04-24T22:19:56.505Z,1.33
2023-04-24T22:25:00.549Z,1.80
2023-04-24T22:30:05.642Z,1.40
2023-04-24T22:35:10.592Z,2.55
2023-04-24T22:40:14.508Z,1.67
2023-04-24T22:45:18.824Z,1.33
2023-04-24T22:50:23.080Z,0.55
2023-04-24T22:55:27.132Z,0.82
2023-04-24T23:00:31.192Z,1.38
2023-04-24T23:05:35.124Z,2.03
2023-04-24T23:10:39.382Z,0.80
2023-04-24T23:15:43.167Z,1.30
2023-04-24T23:20:47.749Z,2.90
2023-04-24T23:25:51.845Z,4.00
2023-04-24T23:30:55.727Z,1.75
2023-04-24T23:35:59.687Z,1.35
2023-04-24T23:41:03.718Z,3.45
2023-04-24T23:46:08.067Z,2.17
2023-04-24T23:51:12.331Z,1.80
2023-04-24T23:56:16.392Z,2.20
